Observation data for Denver City on 10/18/2019      Previous  Date       Current Mesonet Observations  Soil Data  Daily Summary Page  Observations in Plain Language
KDVS 180500Z 17010KT 16/03 A2987 RMK A01 T01550027  RH  043%=      5-min Rain = 0
KDVS 180505Z 18010KT 16/03 A2987 RMK A01 T01550031  RH  044%=      5-min Rain = 0
KDVS 180510Z 18010KT 15/03 A2987 RMK A01 T01540034  RH  045%=      5-min Rain = 0
KDVS 180515Z 18011G16KT 16/04 A2987 RMK A01 T01560037  RH  046%=      5-min Rain = 0
KDVS 180520Z 18011KT 16/04 A2987 RMK A01 T01560039  RH  046%=      5-min Rain = 0
KDVS 180525Z 18013KT 16/04 A2987 RMK A01 T01560041  RH  047%=      5-min Rain = 0
KDVS 180530Z 18012KT 16/04 A2986 RMK A01 T01560042  RH  048%=      5-min Rain = 0
KDVS 180535Z 18012KT 15/04 A2986 RMK A01 T01540044  RH  049%=      5-min Rain = 0
KDVS 180540Z 18012KT 15/05 A2986 RMK A01 T01530046  RH  050%=      5-min Rain = 0
KDVS 180545Z 18012G17KT 15/05 A2986 RMK A01 T01510049  RH  051%=      5-min Rain = 0
KDVS 180550Z 18012G17KT 15/05 A2986 RMK A01 T01500051  RH  053%=      5-min Rain = 0
KDVS 180555Z 18013KT 15/05 A2986 RMK A01 T01510054  RH  053%=      5-min Rain = 0
KDVS 180600Z 18013KT 15/06 A2986 RMK A01 T01520056  RH  054%=      5-min Rain = 0
KDVS 180605Z 18014KT 15/06 A2986 RMK A01 T01540059  RH  054%=      5-min Rain = 0
KDVS 180610Z 18013KT 15/06 A2986 RMK A01 T01540061  RH  055%=      5-min Rain = 0
KDVS 180615Z 18013G19KT 15/06 A2986 RMK A01 T01530064  RH  057%=      5-min Rain = 0
KDVS 180620Z 18012KT 15/07 A2986 RMK A01 T01530066  RH  057%=      5-min Rain = 0
KDVS 180625Z 19011KT 15/07 A2986 RMK A01 T01520067  RH  058%=      5-min Rain = 0
KDVS 180630Z 19012KT 15/07 A2986 RMK A01 T01510068  RH  059%=      5-min Rain = 0
KDVS 180635Z 18011KT 15/07 A2985 RMK A01 T01500069  RH  060%=      5-min Rain = 0
KDVS 180640Z 18011KT 15/07 A2985 RMK A01 T01490070  RH  060%=      5-min Rain = 0
KDVS 180645Z 18011KT 15/07 A2985 RMK A01 T01480070  RH  061%=      5-min Rain = 0
KDVS 180650Z 18010KT 15/07 A2985 RMK A01 T01460071  RH  062%=      5-min Rain = 0
KDVS 180655Z 18010KT 14/07 A2985 RMK A01 T01440072  RH  063%=      5-min Rain = 0
KDVS 180700Z 18009KT 14/07 A2985 RMK A01 T01440072  RH  064%=      5-min Rain = 0
KDVS 180705Z 18008KT 14/07 A2985 RMK A01 T01400072  RH  065%=      5-min Rain = 0
KDVS 180710Z 18009KT 14/07 A2984 RMK A01 T01390073  RH  066%=      5-min Rain = 0
KDVS 180715Z 17009KT 14/07 A2984 RMK A01 T01390074  RH  067%=      5-min Rain = 0
KDVS 180720Z 17009G14KT 14/08 A2984 RMK A01 T01370075  RH  068%=      5-min Rain = 0
KDVS 180725Z 18009KT 14/08 A2984 RMK A01 T01360075  RH  069%=      5-min Rain = 0
KDVS 180730Z 18010KT 14/08 A2984 RMK A01 T01360076  RH  069%=      5-min Rain = 0
KDVS 180735Z 18010KT 14/08 A2984 RMK A01 T01360076  RH  069%=      5-min Rain = 0
KDVS 180740Z 17009KT 13/08 A2984 RMK A01 T01340076  RH  070%=      5-min Rain = 0
KDVS 180745Z 17009KT 13/08 A2984 RMK A01 T01320076  RH  071%=      5-min Rain = 0
KDVS 180750Z 17009KT 13/08 A2984 RMK A01 T01310077  RH  072%=      5-min Rain = 0
KDVS 180755Z 18009KT 13/08 A2984 RMK A01 T01290077  RH  072%=      5-min Rain = 0
KDVS 180800Z 18008KT 13/08 A2984 RMK A01 T01270077  RH  073%=      5-min Rain = 0
KDVS 180805Z 17007KT 12/08 A2984 RMK A01 T01240076  RH  074%=      5-min Rain = 0
KDVS 180810Z 18008KT 12/08 A2984 RMK A01 T01220076  RH  075%=      5-min Rain = 0
KDVS 180815Z 18008KT 12/08 A2984 RMK A01 T01210077  RH  076%=      5-min Rain = 0
KDVS 180820Z 18008KT 12/08 A2984 RMK A01 T01210077  RH  077%=      5-min Rain = 0
KDVS 180825Z 18008KT 12/08 A2984 RMK A01 T01210078  RH  077%=      5-min Rain = 0
KDVS 180830Z 18007KT 12/08 A2984 RMK A01 T01210078  RH  077%=      5-min Rain = 0
KDVS 180835Z 19008KT 12/08 A2984 RMK A01 T01200079  RH  078%=      5-min Rain = 0
KDVS 180840Z 19008KT 12/08 A2984 RMK A01 T01200079  RH  078%=      5-min Rain = 0
KDVS 180845Z 19008KT 12/08 A2984 RMK A01 T01200079  RH  078%=      5-min Rain = 0
KDVS 180850Z 19009KT 12/08 A2983 RMK A01 T01200080  RH  079%=      5-min Rain = 0
KDVS 180855Z 19008KT 12/08 A2983 RMK A01 T01200080  RH  079%=      5-min Rain = 0
KDVS 180900Z 19007KT 12/08 A2983 RMK A01 T01180079  RH  079%=      5-min Rain = 0
KDVS 180905Z 18007KT 12/08 A2983 RMK A01 T01160079  RH  080%=      5-min Rain = 0
KDVS 180910Z 18007KT 12/08 A2983 RMK A01 T01150080  RH  081%=      5-min Rain = 0
KDVS 180915Z 19008KT 12/08 A2983 RMK A01 T01160081  RH  081%=      5-min Rain = 0
KDVS 180920Z 19008KT 12/08 A2983 RMK A01 T01170082  RH  081%=      5-min Rain = 0
KDVS 180925Z 19008KT 12/08 A2983 RMK A01 T01170082  RH  081%=      5-min Rain = 0
KDVS 180930Z 19008KT 12/08 A2983 RMK A01 T01180083  RH  081%=      5-min Rain = 0
KDVS 180935Z 19008KT 12/08 A2983 RMK A01 T01160082  RH  082%=      5-min Rain = 0
KDVS 180940Z 18007KT 12/08 A2982 RMK A01 T01150082  RH  082%=      5-min Rain = 0
KDVS 180945Z 18007KT 11/08 A2982 RMK A01 T01140082  RH  083%=      5-min Rain = 0
KDVS 180950Z 18007KT 11/08 A2982 RMK A01 T01130082  RH  084%=      5-min Rain = 0
KDVS 180955Z 18006KT 11/08 A2982 RMK A01 T01120082  RH  084%=      5-min Rain = 0
KDVS 181000Z 18007KT 11/08 A2982 RMK A01 T01110083  RH  085%=      5-min Rain = 0
KDVS 181005Z 18008KT 11/08 A2982 RMK A01 T01120084  RH  085%=      5-min Rain = 0
KDVS 181010Z 18007KT 11/09 A2982 RMK A01 T01130085  RH  086%=      5-min Rain = 0
KDVS 181015Z 18008KT 11/09 A2982 RMK A01 T01130086  RH  086%=      5-min Rain = 0
KDVS 181020Z 18007KT 11/09 A2982 RMK A01 T01140086  RH  086%=      5-min Rain = 0
KDVS 181025Z 18008KT 11/09 A2982 RMK A01 T01140087  RH  086%=      5-min Rain = 0
KDVS 181030Z 18008KT 11/09 A2982 RMK A01 T01140087  RH  086%=      5-min Rain = 0
KDVS 181035Z 18009KT 11/09 A2982 RMK A01 T01140087  RH  086%=      5-min Rain = 0
KDVS 181040Z 18008KT 11/09 A2982 RMK A01 T01140087  RH  086%=      5-min Rain = 0
KDVS 181045Z 18008KT 11/09 A2982 RMK A01 T01130086  RH  086%=      5-min Rain = 0
KDVS 181050Z 18008KT 11/09 A2982 RMK A01 T01110085  RH  087%=      5-min Rain = 0
KDVS 181055Z 18008KT 11/09 A2982 RMK A01 T01100085  RH  087%=      5-min Rain = 0
KDVS 181100Z 18008KT 11/09 A2981 RMK A01 T01080085  RH  088%=      5-min Rain = 0
KDVS 181105Z 19008KT 11/09 A2982 RMK A01 T01080085  RH  088%=      5-min Rain = 0
KDVS 181110Z 19008KT 11/09 A2982 RMK A01 T01070085  RH  089%=      5-min Rain = 0
KDVS 181115Z 19008KT 11/09 A2981 RMK A01 T01080086  RH  089%=      5-min Rain = 0
KDVS 181120Z 18008KT 11/09 A2981 RMK A01 T01080085  RH  089%=      5-min Rain = 0
KDVS 181125Z 18008KT 11/09 A2981 RMK A01 T01070085  RH  089%=      5-min Rain = 0
KDVS 181130Z 18008KT 11/09 A2981 RMK A01 T01070085  RH  089%=      5-min Rain = 0
KDVS 181135Z 18007KT 11/09 A2981 RMK A01 T01070085  RH  089%=      5-min Rain = 0
KDVS 181140Z 18007KT 11/09 A2981 RMK A01 T01060085  RH  089%=      5-min Rain = 0
KDVS 181145Z 18007KT 11/09 A2981 RMK A01 T01060085  RH  089%=      5-min Rain = 0
KDVS 181150Z 18008KT 11/09 A2981 RMK A01 T01060085  RH  090%=      5-min Rain = 0
KDVS 181155Z 18007KT 11/09 A2981 RMK A01 T01060085  RH  090%=      5-min Rain = 0
KDVS 181200Z 18006KT 11/09 A2981 RMK A01 T01060085  RH  090%=      5-min Rain = 0
KDVS 181205Z 18005KT 11/08 A2981 RMK A01 T01050084  RH  090%=      5-min Rain = 0
KDVS 181210Z 18005KT 10/08 A2981 RMK A01 T01030083  RH  090%=      5-min Rain = 0
KDVS 181215Z 18004KT 10/08 A2981 RMK A01 T01020082  RH  090%=      5-min Rain = 0
KDVS 181220Z 18004KT 10/08 A2982 RMK A01 T01010082  RH  090%=      5-min Rain = 0
KDVS 181225Z 19005KT 10/08 A2982 RMK A01 T01020083  RH  091%=      5-min Rain = 0
KDVS 181230Z 19005KT 10/08 A2981 RMK A01 T01010082  RH  091%=      5-min Rain = 0
KDVS 181235Z 19004KT 10/08 A2982 RMK A01 T01000082  RH  091%=      5-min Rain = 0
KDVS 181240Z 19004KT 10/08 A2982 RMK A01 T00990081  RH  091%=      5-min Rain = 0
KDVS 181245Z 19004KT 10/08 A2981 RMK A01 T00990081  RH  091%=      5-min Rain = 0
KDVS 181250Z 19005KT 10/08 A2981 RMK A01 T00970079  RH  091%=      5-min Rain = 0
KDVS 181255Z 20005KT 10/08 A2981 RMK A01 T00960079  RH  092%=      5-min Rain = 0
KDVS 181300Z 20005KT 10/08 A2982 RMK A01 T00970080  RH  092%=      5-min Rain = 0
KDVS 181305Z 21005KT 10/08 A2982 RMK A01 T00980082  RH  092%=      5-min Rain = 0
KDVS 181310Z 21005KT 10/08 A2982 RMK A01 T00980082  RH  092%=      5-min Rain = 0
KDVS 181315Z 21005KT 10/08 A2982 RMK A01 T00990083  RH  092%=      5-min Rain = 0
KDVS 181320Z 21006KT 10/08 A2982 RMK A01 T01010084  RH  092%=      5-min Rain = 0
KDVS 181325Z 20006KT 10/09 A2981 RMK A01 T01040085  RH  091%=      5-min Rain = 0
KDVS 181330Z 20007KT 11/09 A2981 RMK A01 T01070087  RH  090%=      5-min Rain = 0
KDVS 181335Z 19006KT 11/09 A2981 RMK A01 T01100087  RH  088%=      5-min Rain = 0
KDVS 181340Z 19006KT 11/09 A2981 RMK A01 T01110087  RH  087%=      5-min Rain = 0
KDVS 181345Z 19005KT 11/09 A2982 RMK A01 T01140088  RH  086%=      5-min Rain = 0
KDVS 181350Z 19005KT 12/09 A2982 RMK A01 T01170088  RH  085%=      5-min Rain = 0
KDVS 181355Z 20005KT 12/09 A2982 RMK A01 T01200089  RH  084%=      5-min Rain = 0
KDVS 181400Z 20006KT 12/09 A2982 RMK A01 T01230089  RH  082%=      5-min Rain = 0
KDVS 181405Z 20005KT 13/09 A2982 RMK A01 T01250090  RH  082%=      5-min Rain = 0
KDVS 181410Z 20007KT 13/09 A2982 RMK A01 T01290091  RH  080%=      5-min Rain = 0
KDVS 181415Z 20009KT 13/09 A2982 RMK A01 T01340091  RH  078%=      5-min Rain = 0
KDVS 181420Z 20009KT 14/09 A2981 RMK A01 T01370091  RH  076%=      5-min Rain = 0
KDVS 181425Z 20009KT 14/09 A2981 RMK A01 T01400091  RH  075%=      5-min Rain = 0
KDVS 181430Z 20010KT 15/09 A2981 RMK A01 T01460091  RH  072%=      5-min Rain = 0
KDVS 181435Z 20010KT 15/09 A2981 RMK A01 T01510092  RH  070%=      5-min Rain = 0
KDVS 181440Z 20013KT 16/09 A2981 RMK A01 T01560091  RH  068%=      5-min Rain = 0
KDVS 181445Z 21012KT 16/09 A2981 RMK A01 T01600091  RH  066%=      5-min Rain = 0
KDVS 181450Z 21013KT 17/09 A2981 RMK A01 T01650091  RH  064%=      5-min Rain = 0
KDVS 181455Z 21013KT 17/09 A2981 RMK A01 T01700091  RH  061%=      5-min Rain = 0
KDVS 181500Z 21013G18KT 18/09 A2981 RMK A01 T01770091  RH  059%=      5-min Rain = 0
KDVS 181505Z 21014KT 18/09 A2981 RMK A01 T01820091  RH  057%=      5-min Rain = 0
KDVS 181510Z 21014G19KT 19/09 A2981 RMK A01 T01870091  RH  055%=      5-min Rain = 0
KDVS 181515Z 21013KT 19/09 A2981 RMK A01 T01930093  RH  054%=      5-min Rain = 0
KDVS 181520Z 21014G19KT 20/09 A2981 RMK A01 T01990093  RH  052%=      5-min Rain = 0
KDVS 181525Z 21014KT 20/09 A2981 RMK A01 T02030093  RH  050%=      5-min Rain = 0
KDVS 181530Z 21015KT 21/09 A2981 RMK A01 T02070093  RH  049%=      5-min Rain = 0
KDVS 181535Z 21013KT 21/09 A2981 RMK A01 T02110094  RH  048%=      5-min Rain = 0
KDVS 181540Z 22015KT 21/09 A2981 RMK A01 T02140094  RH  048%=      5-min Rain = 0
KDVS 181545Z 22014G20KT 22/10 A2981 RMK A01 T02160095  RH  048%=      5-min Rain = 0
KDVS 181550Z 22014KT 22/10 A2981 RMK A01 T02210096  RH  047%=      5-min Rain = 0
KDVS 181555Z 22015G20KT 22/10 A2981 RMK A01 T02230096  RH  046%=      5-min Rain = 0
KDVS 181600Z 23014KT 22/10 A2981 RMK A01 T02220097  RH  046%=      5-min Rain = 0
KDVS 181605Z 22013G19KT 23/10 A2981 RMK A01 T02270098  RH  045%=      5-min Rain = 0
KDVS 181610Z 22014KT 23/10 A2981 RMK A01 T02260097  RH  045%=      5-min Rain = 0
KDVS 181615Z 23014KT 23/10 A2981 RMK A01 T02280098  RH  045%=      5-min Rain = 0
KDVS 181620Z 23015KT 23/10 A2981 RMK A01 T02280098  RH  045%=      5-min Rain = 0
KDVS 181625Z 23013G19KT 23/10 A298 RMK A01 T02300099  RH  045%=      5-min Rain = 0
KDVS 181630Z 23015KT 23/10 A298 RMK A01 T02310098  RH  044%=      5-min Rain = 0
KDVS 181635Z 23014KT 23/10 A298 RMK A01 T02320098  RH  044%=      5-min Rain = 0
KDVS 181640Z 24013G19KT 23/10 A298 RMK A01 T02340098  RH  044%=      5-min Rain = 0
KDVS 181645Z 22013G19KT 24/10 A2979 RMK A01 T02390100  RH  043%=      5-min Rain = 0
KDVS 181650Z 24017KT 24/10 A2979 RMK A01 T02430097  RH  041%=      5-min Rain = 0
KDVS 181655Z 24017KT 25/10 A2979 RMK A01 T02450097  RH  040%=      5-min Rain = 0
KDVS 181700Z 23018G25KT 25/09 A2978 RMK A01 T02480092  RH  038%=      5-min Rain = 0
KDVS 181705Z 24021G26KT 25/08 A2978 RMK A01 T02510083  RH  035%=      5-min Rain = 0
KDVS 181710Z 24022G31KT 25/07 A2978 RMK A01 T02540073  RH  032%=      5-min Rain = 0
KDVS 181715Z 25021G29KT 26/07 A2978 RMK A01 T02590066  RH  030%=      5-min Rain = 0
KDVS 181720Z 24023G30KT 26/06 A2978 RMK A01 T02580064  RH  030%=      5-min Rain = 0
KDVS 181725Z 25020G28KT 26/06 A2978 RMK A01 T02600063  RH  029%=      5-min Rain = 0
KDVS 181730Z 24023G30KT 26/06 A2978 RMK A01 T02600058  RH  028%=      5-min Rain = 0
KDVS 181735Z 24023G28KT 26/06 A2978 RMK A01 T02600057  RH  028%=      5-min Rain = 0
KDVS 181740Z 24020G27KT 26/06 A2977 RMK A01 T02620059  RH  028%=      5-min Rain = 0
KDVS 181745Z 25022G29KT 26/06 A2977 RMK A01 T02630062  RH  028%=      5-min Rain = 0
KDVS 181750Z 24022G29KT 26/07 A2977 RMK A01 T02620066  RH  029%=      5-min Rain = 0
KDVS 181755Z 24020G29KT 26/06 A2977 RMK A01 T02620064  RH  029%=      5-min Rain = 0
KDVS 181800Z 25020G26KT 26/06 A2977 RMK A01 T02620064  RH  029%=      5-min Rain = 0
KDVS 181805Z 24019G29KT 26/07 A2977 RMK A01 T02620068  RH  030%=      5-min Rain = 0
KDVS 181810Z 24020G26KT 26/07 A2976 RMK A01 T02630070  RH  030%=      5-min Rain = 0
KDVS 181815Z 24020G26KT 27/07 A2976 RMK A01 T02650069  RH  030%=      5-min Rain = 0
KDVS 181820Z 24020G27KT 26/06 A2976 RMK A01 T02640064  RH  029%=      5-min Rain = 0
KDVS 181825Z 24018G26KT 27/07 A2976 RMK A01 T02650070  RH  030%=      5-min Rain = 0
KDVS 181830Z 23020G26KT 27/07 A2975 RMK A01 T02660065  RH  028%=      5-min Rain = 0
KDVS 181835Z 23022G29KT 27/06 A2975 RMK A01 T02670063  RH  028%=      5-min Rain = 0
KDVS 181840Z 24022G28KT 27/06 A2975 RMK A01 T02650061  RH  028%=      5-min Rain = 0
KDVS 181845Z 23019G27KT 27/06 A2975 RMK A01 T02660061  RH  028%=      5-min Rain = 0
KDVS 181850Z 22019G26KT 27/06 A2974 RMK A01 T02670061  RH  028%=      5-min Rain = 0
KDVS 181855Z 23019G26KT 27/06 A2974 RMK A01 T02690063  RH  028%=      5-min Rain = 0
KDVS 181900Z 23019G29KT 27/06 A2974 RMK A01 T02690060  RH  027%=      5-min Rain = 0
KDVS 181905Z 23020G25KT 27/06 A2973 RMK A01 T02700056  RH  026%=      5-min Rain = 0
KDVS 181910Z 24021G28KT 27/06 A2973 RMK A01 T02700057  RH  026%=      5-min Rain = 0
KDVS 181915Z 24019G26KT 27/06 A2973 RMK A01 T02710058  RH  026%=      5-min Rain = 0
KDVS 181920Z 24021KT 27/06 A2972 RMK A01 T02710064  RH  027%=      5-min Rain = 0
KDVS 181925Z 23020G27KT 27/06 A2972 RMK A01 T02690063  RH  028%=      5-min Rain = 0
KDVS 181930Z 24019G30KT 27/06 A2972 RMK A01 T02700057  RH  026%=      5-min Rain = 0
KDVS 181935Z 25020G29KT 27/05 A2972 RMK A01 T02690053  RH  026%=      5-min Rain = 0
KDVS 181940Z 24020G27KT 27/05 A2972 RMK A01 T02710050  RH  025%=      5-min Rain = 0
KDVS 181945Z 24021G26KT 27/05 A2971 RMK A01 T02720052  RH  025%=      5-min Rain = 0
KDVS 181950Z 25017G26KT 28/05 A2971 RMK A01 T02750054  RH  025%=      5-min Rain = 0
KDVS 181955Z 25016G25KT 28/05 A2971 RMK A01 T02760052  RH  025%=      5-min Rain = 0
KDVS 182000Z 25021G29KT 28/05 A2971 RMK A01 T02750050  RH  024%=      5-min Rain = 0
KDVS 182005Z 25019G28KT 28/05 A2971 RMK A01 T02760050  RH  024%=      5-min Rain = 0
KDVS 182010Z 25019G25KT 28/05 A297 RMK A01 T02760052  RH  024%=      5-min Rain = 0
KDVS 182015Z 25019G25KT 28/05 A297 RMK A01 T02770052  RH  024%=      5-min Rain = 0
KDVS 182020Z 24019G27KT 28/05 A297 RMK A01 T02770052  RH  024%=      5-min Rain = 0
KDVS 182025Z 23020G26KT 28/05 A297 RMK A01 T02760053  RH  025%=      5-min Rain = 0
KDVS 182030Z 23018G24KT 28/05 A297 RMK A01 T02750053  RH  025%=      5-min Rain = 0
KDVS 182035Z 23018G25KT 28/05 A297 RMK A01 T02760054  RH  025%=      5-min Rain = 0
KDVS 182040Z 24017G24KT 28/05 A297 RMK A01 T02770054  RH  025%=      5-min Rain = 0
KDVS 182045Z 25017G24KT 28/06 A297 RMK A01 T02790055  RH  025%=      5-min Rain = 0
KDVS 182050Z 24017G25KT 28/05 A2969 RMK A01 T02770052  RH  024%=      5-min Rain = 0
KDVS 182055Z 23019G27KT 28/05 A2969 RMK A01 T02790045  RH  023%=      5-min Rain = 0
KDVS 182100Z 24018G26KT 28/05 A2969 RMK A01 T02790046  RH  023%=      5-min Rain = 0
KDVS 182105Z 24020G36KT 28/04 A2969 RMK A01 T02800040  RH  022%=      5-min Rain = 0
KDVS 182110Z 25019G24KT 28/04 A2969 RMK A01 T02780037  RH  022%=      5-min Rain = 0
KDVS 182115Z 25020G28KT 28/03 A2969 RMK A01 T02790033  RH  021%=      5-min Rain = 0
KDVS 182120Z 24016G23KT 28/04 A2969 RMK A01 T02780036  RH  022%=      5-min Rain = 0
KDVS 182125Z 25018G24KT 28/03 A2969 RMK A01 T02810029  RH  020%=      5-min Rain = 0
KDVS 182130Z 25019G27KT 28/04 A2969 RMK A01 T02790035  RH  021%=      5-min Rain = 0
KDVS 182135Z 23021G30KT 28/04 A2969 RMK A01 T02770036  RH  022%=      5-min Rain = 0
KDVS 182140Z 25017G23KT 28/03 A2969 RMK A01 T02780032  RH  021%=      5-min Rain = 0
KDVS 182145Z 25018G25KT 28/03 A2969 RMK A01 T02790030  RH  021%=      5-min Rain = 0
KDVS 182150Z 26019G26KT 28/03 A2969 RMK A01 T02780025  RH  020%=      5-min Rain = 0
KDVS 182155Z 25017G24KT 28/03 A2969 RMK A01 T02780028  RH  020%=      5-min Rain = 0
KDVS 182200Z 25019G26KT 28/03 A2969 RMK A01 T02780028  RH  020%=      5-min Rain = 0
KDVS 182205Z 25018G27KT 28/03 A2969 RMK A01 T02770030  RH  021%=      5-min Rain = 0
KDVS 182210Z 25018G24KT 28/03 A297 RMK A01 T02770029  RH  021%=      5-min Rain = 0
KDVS 182215Z 26017G25KT 28/03 A297 RMK A01 T02760030  RH  021%=      5-min Rain = 0
KDVS 182220Z 25019KT 27/03 A2969 RMK A01 T02740028  RH  021%=      5-min Rain = 0
KDVS 182225Z 25017G23KT 27/03 A2969 RMK A01 T02740028  RH  021%=      5-min Rain = 0
KDVS 182230Z 24019G26KT 27/03 A297 RMK A01 T02740029  RH  021%=      5-min Rain = 0
KDVS 182235Z 24016G23KT 27/03 A297 RMK A01 T02720029  RH  021%=      5-min Rain = 0
KDVS 182240Z 24019G28KT 27/03 A297 RMK A01 T02730029  RH  021%=      5-min Rain = 0
KDVS 182245Z 25019KT 27/03 A297 RMK A01 T02720027  RH  021%=      5-min Rain = 0
KDVS 182250Z 24015G21KT 27/03 A297 RMK A01 T02710028  RH  021%=      5-min Rain = 0
KDVS 182255Z 23016G21KT 27/03 A297 RMK A01 T02730027  RH  021%=      5-min Rain = 0
KDVS 182300Z 24017G24KT 27/03 A297 RMK A01 T02700026  RH  021%=      5-min Rain = 0
KDVS 182305Z 24017G23KT 27/02 A297 RMK A01 T02700021  RH  020%=      5-min Rain = 0
KDVS 182310Z 23018G26KT 27/02 A297 RMK A01 T02690018  RH  020%=      5-min Rain = 0
KDVS 182315Z 24017G24KT 27/02 A297 RMK A01 T02670016  RH  020%=      5-min Rain = 0
KDVS 182320Z 25019G28KT 27/02 A297 RMK A01 T02660017  RH  020%=      5-min Rain = 0
KDVS 182325Z 25017G23KT 26/02 A2971 RMK A01 T02630018  RH  021%=      5-min Rain = 0
KDVS 182330Z 24017G23KT 26/02 A2971 RMK A01 T02570021  RH  022%=      5-min Rain = 0
KDVS 182335Z 24014G20KT 25/02 A2971 RMK A01 T02530024  RH  023%=      5-min Rain = 0
KDVS 182340Z 24015G20KT 25/03 A2971 RMK A01 T02520025  RH  023%=      5-min Rain = 0
KDVS 182345Z 24014G19KT 25/03 A2971 RMK A01 T02510026  RH  024%=      5-min Rain = 0
KDVS 182350Z 24015KT 25/03 A2971 RMK A01 T02500028  RH  024%=      5-min Rain = 0
KDVS 182355Z 24014KT 25/03 A2971 RMK A01 T02490030  RH  025%=      5-min Rain = 0
KDVS 190000Z 23014G19KT 25/03 A2971 RMK A01 T02490032  RH  025%=      5-min Rain = 0
KDVS 190005Z 24013KT 25/03 A2971 RMK A01 T02470031  RH  025%=      5-min Rain = 0
KDVS 190010Z 24014KT 25/03 A2972 RMK A01 T02460028  RH  024%=      5-min Rain = 0
KDVS 190015Z 25013G19KT 25/03 A2972 RMK A01 T02450025  RH  024%=      5-min Rain = 0
KDVS 190020Z 25017G23KT 25/02 A2973 RMK A01 T02460024  RH  024%=      5-min Rain = 0
KDVS 190025Z 30023G31KT 24/03 A2974 RMK A01 T02380032  RH  027%=      5-min Rain = 0
KDVS 190030Z 31020G29KT 22/06 A2975 RMK A01 T02160056  RH  036%=      5-min Rain = 0
KDVS 190035Z 31018G25KT 20/06 A2976 RMK A01 T02040062  RH  040%=      5-min Rain = 0
KDVS 190040Z 31019G24KT 20/07 A2977 RMK A01 T02000065  RH  042%=      5-min Rain = 0
KDVS 190045Z 31016G21KT 20/07 A2977 RMK A01 T01980065  RH  043%=      5-min Rain = 0
KDVS 190050Z 31013KT 20/07 A2977 RMK A01 T01960067  RH  044%=      5-min Rain = 0
KDVS 190055Z 32012KT 19/07 A2977 RMK A01 T01940065  RH  044%=      5-min Rain = 0
KDVS 190100Z 31012KT 19/06 A2978 RMK A01 T01940062  RH  043%=      5-min Rain = 0
KDVS 190105Z 30010KT 19/06 A2978 RMK A01 T01920062  RH  044%=      5-min Rain = 0
KDVS 190110Z 30010G15KT 19/06 A2979 RMK A01 T01930058  RH  042%=      5-min Rain = 0
KDVS 190115Z 29009KT 19/06 A2979 RMK A01 T01940057  RH  041%=      5-min Rain = 0
KDVS 190120Z 29007KT 19/06 A2979 RMK A01 T01920058  RH  042%=      5-min Rain = 0
KDVS 190125Z 29007G12KT 19/06 A2979 RMK A01 T01890060  RH  044%=      5-min Rain = 0
KDVS 190130Z 30008KT 19/06 A2979 RMK A01 T01880058  RH  044%=      5-min Rain = 0
KDVS 190135Z 30007KT 19/06 A2979 RMK A01 T01870059  RH  044%=      5-min Rain = 0
KDVS 190140Z 29008KT 19/06 A2979 RMK A01 T01850057  RH  044%=      5-min Rain = 0
KDVS 190145Z 29008KT 18/06 A2979 RMK A01 T01840056  RH  044%=      5-min Rain = 0
KDVS 190150Z 29007KT 18/06 A2979 RMK A01 T01830055  RH  044%=      5-min Rain = 0
KDVS 190155Z 30006KT 18/05 A2979 RMK A01 T01820054  RH  044%=      5-min Rain = 0
KDVS 190200Z 30005KT 18/05 A2979 RMK A01 T01800054  RH  044%=      5-min Rain = 0
KDVS 190205Z 29006KT 18/05 A2979 RMK A01 T01790054  RH  045%=      5-min Rain = 0
KDVS 190210Z 29006KT 18/05 A2979 RMK A01 T01770051  RH  044%=      5-min Rain = 0
KDVS 190215Z 28006KT 17/05 A2979 RMK A01 T01740051  RH  045%=      5-min Rain = 0
KDVS 190220Z 27006KT 17/05 A2979 RMK A01 T01710052  RH  046%=      5-min Rain = 0
KDVS 190225Z 27006KT 17/05 A2979 RMK A01 T01680051  RH  047%=      5-min Rain = 0
KDVS 190230Z 26007KT 17/05 A2979 RMK A01 T01670050  RH  047%=      5-min Rain = 0
KDVS 190235Z 26008KT 16/05 A2979 RMK A01 T01640049  RH  047%=      5-min Rain = 0
KDVS 190240Z 26008KT 16/05 A2979 RMK A01 T01640048  RH  047%=      5-min Rain = 0
KDVS 190245Z 26007KT 16/05 A298 RMK A01 T01630047  RH  047%=      5-min Rain = 0
KDVS 190250Z 25008KT 16/05 A298 RMK A01 T01620047  RH  047%=      5-min Rain = 0
KDVS 190255Z 25008KT 16/05 A298 RMK A01 T01590047  RH  048%=      5-min Rain = 0
KDVS 190300Z 25007KT 16/05 A298 RMK A01 T01570047  RH  049%=      5-min Rain = 0
KDVS 190305Z 26007KT 16/05 A298 RMK A01 T01570047  RH  049%=      5-min Rain = 0
KDVS 190310Z 26007KT 16/05 A298 RMK A01 T01560047  RH  049%=      5-min Rain = 0
KDVS 190315Z 26008KT 15/05 A298 RMK A01 T01530047  RH  050%=      5-min Rain = 0
KDVS 190320Z 26007KT 15/05 A2981 RMK A01 T01510047  RH  051%=      5-min Rain = 0
KDVS 190325Z 27007KT 15/05 A2981 RMK A01 T01500048  RH  051%=      5-min Rain = 0
KDVS 190330Z 27007KT 15/05 A2981 RMK A01 T01510048  RH  051%=      5-min Rain = 0
KDVS 190335Z 27007KT 15/05 A2981 RMK A01 T01530047  RH  050%=      5-min Rain = 0
KDVS 190340Z 27007KT 15/05 A2981 RMK A01 T01540047  RH  050%=      5-min Rain = 0
KDVS 190345Z 27006KT 15/05 A2981 RMK A01 T01540047  RH  050%=      5-min Rain = 0
KDVS 190350Z 27006KT 15/05 A2981 RMK A01 T01500047  RH  051%=      5-min Rain = 0
KDVS 190355Z 26007KT 15/05 A2981 RMK A01 T01470048  RH  052%=      5-min Rain = 0
KDVS 190400Z 26007KT 15/05 A2981 RMK A01 T01470048  RH  053%=      5-min Rain = 0
KDVS 190405Z 26008KT 15/05 A2981 RMK A01 T01470049  RH  053%=      5-min Rain = 0
KDVS 190410Z 26008KT 15/05 A2981 RMK A01 T01450050  RH  054%=      5-min Rain = 0
KDVS 190415Z 26008KT 14/05 A2981 RMK A01 T01440050  RH  054%=      5-min Rain = 0
KDVS 190420Z 26008KT 14/05 A2981 RMK A01 T01430051  RH  055%=      5-min Rain = 0
KDVS 190425Z 26007KT 14/05 A2981 RMK A01 T01410051  RH  056%=      5-min Rain = 0
KDVS 190430Z 26008KT 14/05 A2981 RMK A01 T01390051  RH  056%=      5-min Rain = 0
KDVS 190435Z 26007KT 14/05 A2981 RMK A01 T01390051  RH  057%=      5-min Rain = 0
KDVS 190440Z 27007KT 14/05 A2981 RMK A01 T01380051  RH  057%=      5-min Rain = 0
KDVS 190445Z 27008KT 14/05 A2981 RMK A01 T01390051  RH  057%=      5-min Rain = 0
KDVS 190450Z 27008KT 14/05 A2981 RMK A01 T01390051  RH  057%=      5-min Rain = 0
KDVS 190455Z 27008KT 14/05 A2981 RMK A01 T01390051  RH  056%=      5-min Rain = 0

Page generated in 0.0095 seconds.